PN53 weather

Strohmier Airport
Loretto, Pennsylvania, United States

Public forecast

Using degrees Fahrenheit for public forecast. Weather courtesy of forecast.io.

Closest aviation weather report (METAR) to Strohmier Airport

Closest report is John Murtha Johnstown Cambria County Airport, 17.1 nm (31.7 km) SW. Retrieved 2019/12/10 09:54 UTC (47 minutes ago):

KJST 100954Z AUTO 28009KT 9SM -RA OVC008 11/09 A2970 RMK AO2 PK WND 23034/0901 RAB02 SLP060 P0001 T01060089

Closest aviation forecast (TAF) to Strohmier Airport

Closest forecast is John Murtha Johnstown Cambria County Airport, 17.1 nm (31.7 km) SW. Retrieved 2019/12/10 06:12 UTC (4 hours ago):

TAF KJST 100600Z 1006/1106 23014G24KT P6SM VCSH BKN015 OVC025 TEMPO 1006/1008 SCT015 OVC025 FM101200 26013G22KT 5SM -SHRA BR OVC008 FM101600 27014G24KT P6SM BKN015 OVC120 FM101900 28015G24KT P6SM BKN025 OVC120